Time;durP1;ratioP1;P1;durP2;ratioP2;P2;SDS_P1;SDS_P2;PMS_P1;PMS_P2;Temp;Humidity;BMP_temperature;BMP_pressure;BME280_temperature;BME280_humidity;BME280_pressure;Samples;Min_cycle;Max_cycle;Signal;HPM_P1;HPM_P2
2021/07/07 00:00:05;;;;;;;2.97;1.38;;;;;;;18.80;nan;100470.25;5015313;28;20174;-76
2021/07/07 00:02:30;;;;;;;3.83;1.60;;;;;;;18.76;nan;100468.66;5019830;28;20045;-75
2021/07/07 00:04:55;;;;;;;3.65;1.48;;;;;;;18.71;nan;100475.09;5022948;28;20380;-75
2021/07/07 00:07:21;;;;;;;3.47;1.63;;;;;;;18.64;nan;100471.78;5019885;28;20077;-75
2021/07/07 00:09:46;;;;;;;8.10;1.85;;;;;;;18.58;nan;100485.41;5026971;28;20045;-75
2021/07/07 00:12:11;;;;;;;2.50;1.40;;;;;;;18.44;nan;100498.44;5024023;28;20053;-74
2021/07/07 00:14:37;;;;;;;3.80;1.20;;;;;;;18.31;nan;100498.94;5026037;28;20095;-75
2021/07/07 00:17:02;;;;;;;3.35;1.08;;;;;;;18.20;nan;100503.78;5024355;28;20037;-75
2021/07/07 00:19:28;;;;;;;7.45;1.10;;;;;;;18.07;nan;100507.84;5025798;28;20042;-74
2021/07/07 00:21:58;;;;;;;4.30;1.13;;;;;;;17.95;nan;100511.88;5024778;28;20111;-75
2021/07/07 00:24:24;;;;;;;4.93;0.90;;;;;;;17.85;nan;100515.81;5025584;28;20141;-75
2021/07/07 00:26:49;;;;;;;4.70;1.27;;;;;;;17.79;nan;100515.97;5024241;28;20112;-75
2021/07/07 00:29:14;;;;;;;2.70;1.15;;;;;;;17.74;nan;100524.16;5020758;28;20124;-75
2021/07/07 00:31:41;;;;;;;6.32;1.30;;;;;;;17.71;nan;100519.81;5025302;28;20033;-74
2021/07/07 00:34:06;;;;;;;5.25;1.25;;;;;;;17.67;nan;100514.63;5024976;28;20192;-74
2021/07/07 00:36:31;;;;;;;2.90;1.40;;;;;;;17.67;nan;100511.97;5024229;28;20117;-75
2021/07/07 00:38:56;;;;;;;4.00;1.55;;;;;;;17.61;nan;100507.72;5025417;28;20069;-75
2021/07/07 00:41:22;;;;;;;3.45;1.45;;;;;;;17.50;nan;100505.44;5024008;28;20076;-75
2021/07/07 00:43:48;;;;;;;6.15;1.17;;;;;;;17.50;nan;100516.09;5029445;28;20135;-75
2021/07/07 00:46:13;;;;;;;5.82;1.65;;;;;;;17.48;nan;100509.94;5023065;28;20030;-75
2021/07/07 00:48:38;;;;;;;7.90;1.40;;;;;;;17.46;nan;100511.78;5026175;28;20467;-74
2021/07/07 00:51:04;;;;;;;4.75;1.20;;;;;;;17.43;nan;100514.56;5022883;28;20037;-75
2021/07/07 00:53:31;;;;;;;3.75;1.13;;;;;;;17.35;nan;100526.44;5026530;28;20403;-75
2021/07/07 00:55:58;;;;;;;5.18;1.20;;;;;;;17.33;nan;100534.47;5022233;28;20095;-75
2021/07/07 00:58:26;;;;;;;5.25;1.30;;;;;;;17.33;nan;100539.81;5022653;28;20506;-75
2021/07/07 01:00:52;;;;;;;3.03;1.25;;;;;;;17.30;nan;100539.91;5021469;28;20049;-75
2021/07/07 01:03:17;;;;;;;6.07;1.48;;;;;;;17.37;nan;100554.81;5022660;28;20508;-75
2021/07/07 01:05:43;;;;;;;3.83;1.40;;;;;;;17.52;nan;100577.41;5020880;28;20114;-75
2021/07/07 01:08:08;;;;;;;3.85;1.38;;;;;;;17.62;nan;100591.31;5026244;28;20045;-76
2021/07/07 01:10:33;;;;;;;4.35;1.80;;;;;;;17.72;nan;100606.09;5026062;28;20033;-75
2021/07/07 01:12:59;;;;;;;3.97;1.63;;;;;;;17.79;nan;100605.00;5023241;28;20389;-75
2021/07/07 01:15:24;;;;;;;5.93;2.05;;;;;;;17.90;nan;100577.91;5019971;28;20508;-75
2021/07/07 01:17:50;;;;;;;4.97;1.67;;;;;;;17.89;nan;100561.03;5024540;28;20496;-75
2021/07/07 01:20:22;;;;;;;6.38;1.83;;;;;;;17.81;nan;100557.72;5023106;28;20443;-75
2021/07/07 01:22:47;;;;;;;3.38;1.30;;;;;;;17.79;nan;100570.28;5024952;28;20041;-75
2021/07/07 01:25:15;;;;;;;4.47;1.70;;;;;;;17.89;nan;100582.38;5023048;28;20091;-75
2021/07/07 01:27:42;;;;;;;5.60;2.00;;;;;;;17.95;nan;100586.63;5024436;28;20036;-75
2021/07/07 01:30:12;;;;;;;4.95;2.00;;;;;;;17.97;nan;100587.41;5023094;28;20139;-75
2021/07/07 01:32:37;;;;;;;5.32;1.63;;;;;;;17.98;nan;100588.31;5024975;28;20129;-74
2021/07/07 01:35:04;;;;;;;3.58;1.50;;;;;;;18.01;nan;100574.84;5022703;28;20129;-75
2021/07/07 01:37:30;;;;;;;4.72;1.73;;;;;;;18.12;nan;100570.84;5024507;28;20056;-74
2021/07/07 01:39:55;;;;;;;4.00;1.40;;;;;;;18.20;nan;100565.22;5023189;28;20496;-74
2021/07/07 01:42:21;;;;;;;3.53;1.13;;;;;;;18.27;nan;100582.78;5023912;28;20124;-75
2021/07/07 01:44:46;;;;;;;2.92;1.60;;;;;;;18.30;nan;100597.81;5023287;28;20404;-74
2021/07/07 01:47:11;;;;;;;4.15;1.48;;;;;;;18.30;nan;100581.78;5023576;28;20458;-75
2021/07/07 01:49:37;;;;;;;5.60;1.40;;;;;;;18.31;nan;100579.06;5023933;28;20492;-74
2021/07/07 01:52:02;;;;;;;9.43;1.60;;;;;;;18.28;nan;100579.16;5022832;28;20041;-73
2021/07/07 01:54:27;;;;;;;3.85;1.13;;;;;;;18.27;nan;100571.22;5024000;28;20025;-75
2021/07/07 01:56:54;;;;;;;4.28;1.25;;;;;;;18.32;nan;100559.44;5021936;28;20073;-74
2021/07/07 01:59:19;;;;;;;5.15;1.45;;;;;;;18.31;nan;100560.38;5024567;28;20025;-74
2021/07/07 02:01:44;;;;;;;3.75;1.42;;;;;;;18.34;nan;100562.06;5021786;28;20515;-74
2021/07/07 02:04:10;;;;;;;4.80;1.45;;;;;;;18.30;nan;100542.59;5024750;28;20040;-74
2021/07/07 02:06:35;;;;;;;3.78;1.50;;;;;;;18.25;nan;100525.00;5021119;28;20084;-74
2021/07/07 02:09:03;;;;;;;4.65;1.92;;;;;;;18.09;nan;100514.88;5024953;28;20033;-74
2021/07/07 02:11:28;;;;;;;4.15;1.90;;;;;;;18.03;nan;100516.94;5021204;28;20053;-73
2021/07/07 02:13:54;;;;;;;4.07;2.05;;;;;;;18.01;nan;100521.44;5024638;28;20658;-74
2021/07/07 02:16:19;;;;;;;7.43;2.05;;;;;;;17.98;nan;100522.44;5023859;28;20407;-74
2021/07/07 02:18:44;;;;;;;4.80;1.95;;;;;;;17.88;nan;100531.69;5024474;28;20522;-74
2021/07/07 02:21:10;;;;;;;5.32;1.90;;;;;;;17.81;nan;100530.16;5028083;28;20088;-75
2021/07/07 02:23:35;;;;;;;5.80;1.98;;;;;;;17.75;nan;100536.56;5022541;28;20400;-74
2021/07/07 02:26:01;;;;;;;4.13;1.67;;;;;;;17.66;nan;100534.25;5039392;28;20068;-73
2021/07/07 02:28:26;;;;;;;4.22;1.70;;;;;;;17.69;nan;100523.47;5036271;28;20033;-75
2021/07/07 02:30:53;;;;;;;6.43;2.08;;;;;;;17.64;nan;100507.59;5029931;28;20037;-74
2021/07/07 02:33:19;;;;;;;5.22;1.95;;;;;;;17.59;nan;100506.88;5038138;28;20414;-75
2021/07/07 02:35:45;;;;;;;7.78;2.55;;;;;;;17.50;nan;100510.75;5022479;28;20124;-75
2021/07/07 02:38:14;;;;;;;8.85;2.85;;;;;;;17.44;nan;100510.97;5022097;28;20116;-75
2021/07/07 02:40:40;;;;;;;5.30;2.70;;;;;;;17.42;nan;100507.50;5022769;28;20069;-75
2021/07/07 02:43:07;;;;;;;7.13;2.67;;;;;;;17.42;nan;100493.25;5022082;28;20113;-75
2021/07/07 02:45:35;;;;;;;5.80;2.58;;;;;;;17.41;nan;100472.84;5022481;28;20037;-75
2021/07/07 02:48:00;;;;;;;6.07;2.30;;;;;;;17.35;nan;100463.28;5022032;28;20571;-75
2021/07/07 02:50:26;;;;;;;5.57;2.25;;;;;;;17.33;nan;100466.91;5021578;28;20137;-75
2021/07/07 02:52:52;;;;;;;5.45;2.50;;;;;;;17.31;nan;100467.81;5033578;28;20038;-75
2021/07/07 02:55:20;;;;;;;5.85;2.10;;;;;;;17.31;nan;100482.97;5019745;28;20125;-74
2021/07/07 02:57:57;;;;;;;5.55;2.50;;;;;;;17.27;nan;100478.69;5021694;28;20041;-75
2021/07/07 03:00:33;;;;;;;5.68;2.03;;;;;;;17.31;nan;100480.28;5022781;28;20046;-75
2021/07/07 03:03:01;;;;;;;10.90;2.50;;;;;;;17.30;nan;100483.91;5020420;28;20108;-75
2021/07/07 03:05:27;;;;;;;8.55;2.33;;;;;;;17.27;nan;100482.22;5019964;28;20044;-75
2021/07/07 03:07:53;;;;;;;5.18;2.25;;;;;;;17.31;nan;100482.97;5019210;28;20435;-75
2021/07/07 03:10:18;;;;;;;4.25;2.15;;;;;;;17.28;nan;100491.06;5023493;28;20091;-75
2021/07/07 03:12:43;;;;;;;4.20;2.10;;;;;;;17.27;nan;100502.69;5020667;28;20046;-75
2021/07/07 03:15:09;;;;;;;2.78;1.80;;;;;;;17.30;nan;100514.09;5022709;28;20120;-75
2021/07/07 03:17:35;;;;;;;4.38;2.47;;;;;;;17.30;nan;100539.91;5022015;28;20175;-74
2021/07/07 03:20:00;;;;;;;6.40;2.50;;;;;;;17.41;nan;100553.75;5027909;28;20061;-75
2021/07/07 03:22:25;;;;;;;7.80;4.25;;;;;;;17.53;nan;100568.50;5022079;28;20108;-75
2021/07/07 03:24:51;;;;;;;6.65;3.10;;;;;;;17.60;nan;100561.13;5021515;28;20038;-75
2021/07/07 03:27:16;;;;;;;5.03;2.92;;;;;;;17.64;nan;100560.09;5033394;28;20034;-73
2021/07/07 03:29:41;;;;;;;8.73;2.97;;;;;;;17.71;nan;100553.59;5025025;28;20033;-75
2021/07/07 03:32:07;;;;;;;7.15;3.13;;;;;;;17.75;nan;100553.44;5022363;28;20038;-75
2021/07/07 03:34:32;;;;;;;5.68;3.10;;;;;;;17.78;nan;100549.81;5020413;28;20459;-74
2021/07/07 03:36:59;;;;;;;6.78;3.03;;;;;;;17.86;nan;100547.75;5022480;28;20156;-75
2021/07/07 03:39:24;;;;;;;7.40;3.65;;;;;;;17.93;nan;100546.63;5032198;28;20076;-75
2021/07/07 03:41:49;;;;;;;5.72;3.17;;;;;;;17.96;nan;100546.50;5019786;28;20119;-75
2021/07/07 03:44:14;;;;;;;7.93;2.53;;;;;;;17.99;nan;100561.53;5022955;28;20064;-74
2021/07/07 03:46:40;;;;;;;7.78;3.70;;;;;;;17.95;nan;100570.59;5019687;28;20041;-75
2021/07/07 03:49:05;;;;;;;5.10;2.97;;;;;;;17.92;nan;100571.59;5034874;28;20048;-75
2021/07/07 03:51:31;;;;;;;7.40;3.30;;;;;;;17.95;nan;100583.97;5021559;28;20042;-74
2021/07/07 03:53:56;;;;;;;6.03;2.65;;;;;;;17.99;nan;100584.72;5020130;28;20030;-75
2021/07/07 03:56:22;;;;;;;5.10;2.08;;;;;;;17.94;nan;100590.22;5021844;28;20026;-75
2021/07/07 03:58:47;;;;;;;6.25;2.72;;;;;;;17.91;nan;100596.53;5020532;28;20152;-74
2021/07/07 04:01:13;;;;;;;4.40;2.22;;;;;;;17.93;nan;100618.72;5025786;28;20091;-75
2021/07/07 04:03:38;;;;;;;5.82;3.22;;;;;;;17.89;nan;100626.88;5021594;28;20081;-75
2021/07/07 04:06:04;;;;;;;7.63;3.33;;;;;;;17.87;nan;100648.31;5020694;28;20025;-74
2021/07/07 04:08:29;;;;;;;7.38;3.40;;;;;;;17.79;nan;100644.09;5038615;23;20703;-74
2021/07/07 04:10:54;;;;;;;8.60;3.35;;;;;;;17.68;nan;100616.00;5003023;28;20044;-74
2021/07/07 04:13:20;;;;;;;5.90;2.88;;;;;;;17.60;nan;100607.34;5000453;28;20046;-75
2021/07/07 04:15:45;;;;;;;6.47;2.88;;;;;;;17.60;nan;100625.19;5001565;28;20121;-74
2021/07/07 04:18:12;;;;;;;7.22;2.53;;;;;;;17.55;nan;100632.47;5001190;28;20038;-74
2021/07/07 04:20:37;;;;;;;7.43;2.80;;;;;;;17.55;nan;100640.47;5000822;28;20042;-74
2021/07/07 04:23:02;;;;;;;5.75;2.13;;;;;;;17.58;nan;100651.03;5002311;28;20045;-75
2021/07/07 04:25:28;;;;;;;5.65;2.58;;;;;;;17.56;nan;100652.91;4999780;28;20047;-74
2021/07/07 04:27:53;;;;;;;8.38;2.97;;;;;;;17.52;nan;100647.66;5003006;28;20046;-74
2021/07/07 04:30:19;;;;;;;9.27;4.07;;;;;;;17.50;nan;100644.19;4995258;28;20045;-75
2021/07/07 04:32:46;;;;;;;7.22;2.25;;;;;;;17.52;nan;100625.44;5000037;28;20100;-74
2021/07/07 04:35:13;;;;;;;6.63;2.20;;;;;;;17.51;nan;100624.56;5001557;28;20038;-74
2021/07/07 04:37:38;;;;;;;5.32;1.80;;;;;;;17.51;nan;100629.03;5001287;28;20043;-74
2021/07/07 04:40:06;;;;;;;6.05;1.90;;;;;;;17.50;nan;100649.50;5000613;28;20381;-74
2021/07/07 04:42:31;;;;;;;6.85;2.63;;;;;;;17.44;nan;100663.03;5002607;28;20045;-74
2021/07/07 04:44:57;;;;;;;9.18;3.10;;;;;;;17.42;nan;100682.69;4999361;28;20085;-74
2021/07/07 04:47:22;;;;;;;8.45;3.55;;;;;;;17.36;nan;100712.22;5002737;28;20057;-74
2021/07/07 04:49:47;;;;;;;6.72;2.65;;;;;;;17.36;nan;100715.75;4999951;28;20062;-74
2021/07/07 04:52:13;;;;;;;8.10;3.67;;;;;;;17.28;nan;100701.78;5000862;28;20068;-74
2021/07/07 04:54:38;;;;;;;9.65;3.58;;;;;;;17.13;nan;100696.94;5001448;28;20034;-74
2021/07/07 04:57:03;;;;;;;7.57;2.75;;;;;;;17.03;nan;100691.03;5002910;28;20034;-74
2021/07/07 04:59:29;;;;;;;6.90;3.42;;;;;;;17.02;nan;100692.78;5011207;28;20041;-74
2021/07/07 05:01:54;;;;;;;8.32;3.90;;;;;;;16.98;nan;100696.50;5015524;28;20149;-74
2021/07/07 05:04:19;;;;;;;8.48;3.50;;;;;;;16.89;nan;100704.75;5007454;28;20041;-74
2021/07/07 05:06:45;;;;;;;8.45;3.75;;;;;;;16.84;nan;100706.69;5003378;28;20042;-74
2021/07/07 05:09:10;;;;;;;5.85;2.40;;;;;;;16.86;nan;100707.50;5017028;28;20041;-74
2021/07/07 05:11:37;;;;;;;6.40;2.00;;;;;;;16.85;nan;100716.44;5010764;28;20159;-74
2021/07/07 05:14:02;;;;;;;6.00;2.20;;;;;;;16.81;nan;100722.75;5005873;28;20046;-74
2021/07/07 05:16:27;;;;;;;5.53;2.25;;;;;;;16.83;nan;100718.25;5010313;28;20045;-74
2021/07/07 05:18:53;;;;;;;8.43;2.22;;;;;;;16.83;nan;100720.94;5018203;28;20061;-74
2021/07/07 05:21:18;;;;;;;3.10;1.30;;;;;;;16.81;nan;100712.09;5008227;28;20060;-74
2021/07/07 05:23:43;;;;;;;7.28;1.77;;;;;;;16.67;nan;100715.13;5003563;28;20034;-74
2021/07/07 05:26:09;;;;;;;2.92;1.25;;;;;;;16.65;nan;100712.50;5004462;28;20041;-74
2021/07/07 05:28:34;;;;;;;5.90;1.63;;;;;;;16.61;nan;100715.28;5008484;28;20041;-74
2021/07/07 05:31:07;;;;;;;3.53;1.20;;;;;;;16.53;nan;100719.97;5011055;28;20030;-74
2021/07/07 05:33:35;;;;;;;3.83;1.35;;;;;;;16.44;nan;100718.44;5006943;28;20050;-74
2021/07/07 05:36:08;;;;;;;8.10;1.63;;;;;;;16.41;nan;100715.84;5012002;28;20069;-74
2021/07/07 05:38:34;;;;;;;4.88;1.38;;;;;;;16.36;nan;100725.75;5012981;28;20068;-74
2021/07/07 05:41:00;;;;;;;3.33;1.50;;;;;;;16.29;nan;100724.16;5008853;28;20492;-74
2021/07/07 05:43:26;;;;;;;8.02;2.47;;;;;;;16.25;nan;100728.72;5005515;28;20038;-74
2021/07/07 05:45:53;;;;;;;8.25;3.33;;;;;;;16.30;nan;100718.81;5003012;28;20066;-74
2021/07/07 05:48:18;;;;;;;8.65;2.70;;;;;;;16.36;nan;100723.97;5003618;28;20038;-74
2021/07/07 05:50:44;;;;;;;7.20;2.80;;;;;;;16.37;nan;100744.38;5008101;28;20057;-74
2021/07/07 05:53:10;;;;;;;4.05;1.88;;;;;;;16.46;nan;100753.91;5009363;28;20029;-74
2021/07/07 05:55:36;;;;;;;5.07;1.70;;;;;;;16.55;nan;100758.97;5012555;28;20488;-74
2021/07/07 05:58:01;;;;;;;6.65;1.40;;;;;;;16.59;nan;100755.31;5001945;28;20053;-74
2021/07/07 06:00:27;;;;;;;2.28;1.00;;;;;;;16.54;nan;100749.25;5004934;28;20037;-74
2021/07/07 06:02:54;;;;;;;3.47;1.25;;;;;;;16.48;nan;100768.06;5006773;28;20030;-74
2021/07/07 06:05:21;;;;;;;7.95;1.65;;;;;;;16.45;nan;100760.13;5002919;28;20112;-74
2021/07/07 06:07:46;;;;;;;10.45;1.90;;;;;;;16.44;nan;100763.72;5003240;28;20045;-74
2021/07/07 06:10:15;;;;;;;6.72;1.88;;;;;;;16.49;nan;100766.28;5004194;28;20038;-74
2021/07/07 06:12:41;;;;;;;5.05;1.67;;;;;;;16.57;nan;100769.59;5002013;28;20452;-74
2021/07/07 06:15:09;;;;;;;6.28;2.10;;;;;;;16.68;nan;100753.31;5001328;28;20065;-74
2021/07/07 06:17:34;;;;;;;6.63;2.05;;;;;;;16.70;nan;100749.69;5004392;28;20038;-74
2021/07/07 06:19:59;;;;;;;4.00;1.50;;;;;;;16.74;nan;100737.13;5002768;28;20522;-74
2021/07/07 06:22:25;;;;;;;3.67;1.50;;;;;;;16.81;nan;100749.41;5003388;28;20037;-74
2021/07/07 06:24:51;;;;;;;5.85;1.75;;;;;;;16.84;nan;100759.97;5003534;28;20053;-74
2021/07/07 06:27:16;;;;;;;5.63;1.50;;;;;;;16.89;nan;100754.53;5002609;28;20038;-74
2021/07/07 06:29:42;;;;;;;5.15;1.50;;;;;;;17.00;nan;100755.97;5004211;28;20443;-74
2021/07/07 06:32:08;;;;;;;5.78;1.40;;;;;;;17.06;nan;100763.78;5001352;28;20042;-74
2021/07/07 06:34:33;;;;;;;3.67;1.60;;;;;;;17.07;nan;100746.00;5001153;28;20411;-74
2021/07/07 06:36:59;;;;;;;3.03;1.30;;;;;;;17.09;nan;100754.84;5004490;28;20639;-74
2021/07/07 06:39:25;;;;;;;3.83;1.17;;;;;;;17.11;nan;100761.00;5002233;28;20042;-74
2021/07/07 06:41:50;;;;;;;4.78;1.52;;;;;;;17.15;nan;100754.63;5003230;28;20037;-74
2021/07/07 06:44:15;;;;;;;5.88;1.90;;;;;;;17.11;nan;100765.44;5002905;28;20044;-75
2021/07/07 06:46:41;;;;;;;5.43;1.95;;;;;;;17.25;nan;100768.59;5002446;28;20489;-74
2021/07/07 06:49:06;;;;;;;7.40;1.58;;;;;;;17.41;nan;100769.84;5003905;28;20530;-74
2021/07/07 06:51:31;;;;;;;3.60;1.02;;;;;;;17.59;nan;100759.53;5001036;28;20046;-74
2021/07/07 06:53:57;;;;;;;4.55;1.40;;;;;;;17.73;nan;100750.16;5015393;28;20045;-74
2021/07/07 06:56:22;;;;;;;7.07;1.20;;;;;;;17.87;nan;100751.56;5008167;28;20048;-74
2021/07/07 06:58:47;;;;;;;3.42;1.08;;;;;;;17.94;nan;100740.59;5014719;28;20033;-74
2021/07/07 07:01:13;;;;;;;6.57;2.33;;;;;;;17.97;nan;100747.63;5012624;28;20378;-74
2021/07/07 07:03:38;;;;;;;6.20;2.60;;;;;;;18.02;nan;100758.19;5009720;28;20519;-74
2021/07/07 07:06:03;;;;;;;4.43;1.90;;;;;;;18.02;nan;100769.72;5006012;28;20034;-75
2021/07/07 07:08:29;;;;;;;4.30;1.55;;;;;;;18.06;nan;100775.84;5011857;28;20041;-74
2021/07/07 07:10:54;;;;;;;4.05;1.40;;;;;;;18.07;nan;100782.94;5012989;28;20566;-75
2021/07/07 07:13:19;;;;;;;3.65;1.40;;;;;;;18.08;nan;100790.91;5008027;28;20558;-75
2021/07/07 07:15:48;;;;;;;6.28;1.88;;;;;;;18.06;nan;100787.41;5000031;28;20038;-75
2021/07/07 07:18:14;;;;;;;5.45;2.15;;;;;;;18.05;nan;100795.47;5012020;28;20061;-75
2021/07/07 07:20:40;;;;;;;4.70;1.60;;;;;;;17.98;nan;100804.63;5003005;28;20521;-74
2021/07/07 07:23:05;;;;;;;2.42;0.98;;;;;;;17.94;nan;100815.38;5001866;28;20146;-75
2021/07/07 07:25:31;;;;;;;4.60;1.55;;;;;;;17.93;nan;100804.75;4999625;28;20119;-74
2021/07/07 07:27:56;;;;;;;3.15;1.33;;;;;;;17.94;nan;100807.34;5014255;28;20220;-75
2021/07/07 07:30:22;;;;;;;4.10;1.20;;;;;;;17.98;nan;100799.28;5005297;28;20029;-74
2021/07/07 07:32:49;;;;;;;4.93;1.15;;;;;;;17.81;nan;100799.81;5000487;28;20045;-75
2021/07/07 07:35:19;;;;;;;2.80;1.20;;;;;;;17.76;nan;100810.59;5003595;28;20034;-75
2021/07/07 07:37:59;;;;;;;4.05;1.40;;;;;;;17.81;nan;100800.66;5001135;28;20037;-75
2021/07/07 07:40:32;;;;;;;3.20;1.10;;;;;;;17.85;nan;100804.13;5000098;28;20035;-75
2021/07/07 07:42:57;;;;;;;2.22;0.88;;;;;;;17.83;nan;100804.16;5005945;28;20065;-75
2021/07/07 07:45:23;;;;;;;2.47;1.08;;;;;;;17.87;nan;100807.63;5001086;28;20082;-74
2021/07/07 07:47:48;;;;;;;2.80;0.93;;;;;;;17.83;nan;100812.19;5001592;28;20030;-74
2021/07/07 07:50:14;;;;;;;4.28;0.98;;;;;;;17.83;nan;100814.84;5002245;28;20121;-75
2021/07/07 07:52:41;;;;;;;2.90;0.95;;;;;;;17.96;nan;100821.53;5000660;28;20041;-75
2021/07/07 07:55:07;;;;;;;3.00;1.17;;;;;;;17.99;nan;100811.69;5002807;28;20120;-75
2021/07/07 07:57:36;;;;;;;3.55;1.17;;;;;;;18.10;nan;100806.88;4999901;28;20042;-75
2021/07/07 08:00:05;;;;;;;4.10;1.25;;;;;;;18.16;nan;100806.69;5002413;28;20137;-75
2021/07/07 08:02:40;;;;;;;3.53;1.10;;;;;;;18.14;nan;100800.50;5002896;28;20121;-75
2021/07/07 08:05:06;;;;;;;2.90;0.80;;;;;;;18.17;nan;100795.06;5003098;28;20033;-75
2021/07/07 08:07:32;;;;;;;5.47;1.30;;;;;;;18.22;nan;100801.13;5002994;28;20519;-75
2021/07/07 08:09:59;;;;;;;3.83;1.50;;;;;;;18.28;nan;100811.59;5000455;28;20091;-75
2021/07/07 08:12:24;;;;;;;2.17;1.30;;;;;;;18.34;nan;100802.53;5001964;28;20034;-75
2021/07/07 08:14:51;;;;;;;4.05;1.77;;;;;;;18.45;nan;100795.00;5001276;28;20511;-75
2021/07/07 08:17:20;;;;;;;4.13;1.88;;;;;;;18.59;nan;100810.56;5000721;28;20049;-75
2021/07/07 08:19:46;;;;;;;2.45;1.30;;;;;;;18.71;nan;100812.81;5002984;28;20480;-75
2021/07/07 08:22:11;;;;;;;3.25;1.10;;;;;;;18.81;nan;100822.28;4999628;28;20030;-75
2021/07/07 08:24:37;;;;;;;3.40;1.05;;;;;;;18.96;nan;100812.81;5002539;28;20044;-75
2021/07/07 08:27:03;;;;;;;3.30;1.13;;;;;;;19.05;nan;100816.97;5000370;28;20420;-75
2021/07/07 08:29:28;;;;;;;4.97;2.60;;;;;;;19.05;nan;100815.16;5002552;28;20041;-75
2021/07/07 08:31:54;;;;;;;6.63;3.70;;;;;;;19.04;nan;100825.91;5005356;28;20485;-75
2021/07/07 08:34:19;;;;;;;4.53;2.80;;;;;;;19.04;nan;100831.25;5004656;28;20065;-75
2021/07/07 08:36:45;;;;;;;4.40;1.45;;;;;;;18.98;nan;100837.72;5005883;28;20042;-75
2021/07/07 08:39:10;;;;;;;6.85;1.50;;;;;;;18.99;nan;100852.84;5003788;28;20041;-74
2021/07/07 08:41:38;;;;;;;3.50;1.58;;;;;;;18.97;nan;100848.47;5006871;28;20041;-75
2021/07/07 08:44:03;;;;;;;6.00;2.75;;;;;;;18.98;nan;100848.41;5003587;28;20172;-75
2021/07/07 08:46:29;;;;;;;3.67;1.92;;;;;;;18.94;nan;100836.09;5005711;28;20116;-75
2021/07/07 08:48:54;;;;;;;3.85;1.60;;;;;;;18.95;nan;100843.19;5004505;28;20122;-75
2021/07/07 08:51:20;;;;;;;6.10;1.83;;;;;;;19.02;nan;100849.16;5004985;28;20052;-75
2021/07/07 08:53:46;;;;;;;2.88;1.10;;;;;;;19.11;nan;100859.53;5005306;28;20039;-75
2021/07/07 08:56:12;;;;;;;2.83;0.95;;;;;;;19.17;nan;100856.63;5003634;28;20042;-75
2021/07/07 08:58:38;;;;;;;4.10;1.52;;;;;;;19.21;nan;100849.38;5006388;28;20400;-75
2021/07/07 09:01:03;;;;;;;4.57;1.60;;;;;;;19.24;nan;100849.25;5002804;28;20049;-75
2021/07/07 09:03:29;;;;;;;3.85;1.90;;;;;;;19.19;nan;100846.75;5005973;28;20050;-74
2021/07/07 09:06:02;;;;;;;6.05;3.97;;;;;;;19.22;nan;100841.28;5003091;28;20039;-75
2021/07/07 09:08:41;;;;;;;5.10;3.25;;;;;;;19.24;nan;100868.00;5002524;28;20520;-75
2021/07/07 09:11:24;;;;;;;4.55;2.10;;;;;;;19.17;nan;100880.72;5003434;28;20045;-75
2021/07/07 09:14:07;;;;;;;5.25;1.70;;;;;;;19.09;nan;100897.97;5002929;28;20128;-75
2021/07/07 09:16:55;;;;;;;4.70;1.55;;;;;;;19.03;nan;100904.44;5004856;28;20497;-75
2021/07/07 09:19:26;;;;;;;4.05;1.35;;;;;;;19.09;nan;100909.53;5008571;28;20030;-75
2021/07/07 09:21:54;;;;;;;3.45;1.50;;;;;;;19.07;nan;100906.03;5009125;28;20038;-75
2021/07/07 09:24:24;;;;;;;4.60;1.92;;;;;;;19.20;nan;100903.81;5006042;28;20444;-76
2021/07/07 09:27:01;;;;;;;4.43;2.35;;;;;;;19.25;nan;100908.06;5015237;28;20060;-75
2021/07/07 09:29:46;;;;;;;5.20;2.10;;;;;;;19.17;nan;100912.81;5005502;28;20125;-75
2021/07/07 09:32:17;;;;;;;4.70;2.00;;;;;;;19.20;nan;100914.50;5007154;28;20485;-75
2021/07/07 09:34:46;;;;;;;4.28;1.75;;;;;;;19.28;nan;100925.81;5013081;28;20075;-75
2021/07/07 09:37:21;;;;;;;4.38;1.50;;;;;;;19.35;nan;100921.13;5009017;28;20038;-75
2021/07/07 09:39:47;;;;;;;3.25;1.17;;;;;;;19.49;nan;100924.16;5003070;28;20097;-75
2021/07/07 09:42:12;;;;;;;3.97;1.25;;;;;;;19.53;nan;100914.22;5004601;28;20042;-75
2021/07/07 09:44:38;;;;;;;4.75;1.55;;;;;;;19.67;nan;100907.44;5010971;28;20125;-75
2021/07/07 09:47:04;;;;;;;5.55;1.77;;;;;;;19.87;nan;100905.81;5015238;28;20117;-75
2021/07/07 09:49:34;;;;;;;5.93;1.90;;;;;;;19.97;nan;100893.81;5005918;28;20546;-75
2021/07/07 09:52:00;;;;;;;3.38;1.67;;;;;;;19.98;nan;100913.44;5004293;28;20069;-75
2021/07/07 09:54:25;;;;;;;3.33;1.60;;;;;;;20.10;nan;100911.16;5003858;28;20023;-75
2021/07/07 09:56:51;;;;;;;3.80;1.73;;;;;;;20.08;nan;100907.66;5002954;28;20097;-75
2021/07/07 09:59:17;;;;;;;4.93;2.50;;;;;;;20.10;nan;100908.47;5005003;28;20038;-75
2021/07/07 10:01:46;;;;;;;5.25;1.90;;;;;;;20.22;nan;100908.91;5005929;28;20503;-75
2021/07/07 10:04:14;;;;;;;3.92;1.63;;;;;;;20.31;nan;100914.78;5008076;28;20420;-76
2021/07/07 10:06:40;;;;;;;2.88;1.30;;;;;;;20.34;nan;100924.50;5007759;28;20432;-75
2021/07/07 10:09:05;;;;;;;5.07;1.38;;;;;;;20.23;nan;100932.97;5004426;28;20094;-74
2021/07/07 10:11:31;;;;;;;5.25;1.60;;;;;;;19.91;nan;100936.88;4999936;28;20447;-75
2021/07/07 10:13:56;;;;;;;4.45;1.35;;;;;;;19.98;nan;100949.13;5007798;28;20045;-75
2021/07/07 10:16:22;;;;;;;5.25;1.55;;;;;;;19.99;nan;100961.59;5001891;28;20039;-75
2021/07/07 10:18:48;;;;;;;3.63;1.48;;;;;;;19.74;nan;100968.81;5004620;28;20054;-75
2021/07/07 10:21:15;;;;;;;4.32;1.83;;;;;;;19.61;nan;100965.69;5002040;28;20042;-75
2021/07/07 10:23:41;;;;;;;4.80;2.00;;;;;;;19.38;nan;100967.38;5000817;28;20045;-75
2021/07/07 10:26:08;;;;;;;5.18;2.13;;;;;;;19.39;nan;100974.50;5002151;28;20039;-75
2021/07/07 10:28:34;;;;;;;4.93;1.85;;;;;;;19.27;nan;100977.59;4998547;28;20040;-75
2021/07/07 10:31:02;;;;;;;3.78;2.00;;;;;;;19.11;nan;100979.94;5032061;23;20034;-74
2021/07/07 10:33:34;;;;;;;3.45;1.90;;;;;;;19.14;nan;100966.44;5021945;28;20034;-74
2021/07/07 10:36:20;;;;;;;6.70;1.60;;;;;;;19.18;nan;100957.41;5020478;28;20042;-74
2021/07/07 10:38:55;;;;;;;3.08;1.40;;;;;;;19.31;nan;100955.16;5020864;28;20061;-74
2021/07/07 10:41:42;;;;;;;3.95;1.75;;;;;;;19.41;nan;100940.53;5022084;28;20048;-74
2021/07/07 10:44:22;;;;;;;4.72;1.40;;;;;;;19.43;nan;100937.78;5022662;28;20033;-74
2021/07/07 10:47:11;;;;;;;6.88;1.30;;;;;;;19.53;nan;100936.50;5021543;28;20496;-74
2021/07/07 10:49:51;;;;;;;2.60;1.27;;;;;;;19.63;nan;100937.91;5021782;28;20408;-75
2021/07/07 10:52:20;;;;;;;3.63;1.33;;;;;;;19.58;nan;100950.59;5017991;28;20092;-75
2021/07/07 10:54:58;;;;;;;3.17;1.33;;;;;;;19.66;nan;100942.28;5022401;28;20056;-73
2021/07/07 10:57:25;;;;;;;3.92;1.42;;;;;;;19.75;nan;100941.09;5023591;28;20041;-74
2021/07/07 10:59:55;;;;;;;4.40;1.38;;;;;;;19.81;nan;100931.03;5021319;28;20080;-75
2021/07/07 11:02:23;;;;;;;2.97;1.50;;;;;;;19.94;nan;100931.44;5021468;28;20041;-75
2021/07/07 11:04:58;;;;;;;3.95;1.40;;;;;;;20.03;nan;100930.19;5018404;28;20400;-75
2021/07/07 11:07:35;;;;;;;3.53;1.80;;;;;;;20.02;nan;100928.47;5022151;28;20037;-75
2021/07/07 11:10:17;;;;;;;3.58;1.27;;;;;;;19.97;nan;100936.69;5020507;28;20068;-75
2021/07/07 11:12:42;;;;;;;4.75;1.73;;;;;;;19.95;nan;100946.56;5019188;28;20133;-75
2021/07/07 11:15:20;;;;;;;3.83;1.50;;;;;;;20.00;nan;100946.41;5020039;28;20037;-74
2021/07/07 11:17:56;;;;;;;3.53;1.52;;;;;;;19.98;nan;100948.25;5021056;28;20073;-75
2021/07/07 11:20:26;;;;;;;5.35;2.17;;;;;;;19.93;nan;100951.09;5020913;28;20503;-75
2021/07/07 11:23:06;;;;;;;3.60;1.95;;;;;;;20.00;nan;100959.78;5020020;28;20437;-75
2021/07/07 11:25:33;;;;;;;3.35;1.73;;;;;;;20.01;nan;100967.75;5025965;28;20039;-75
2021/07/07 11:27:59;;;;;;;5.55;1.10;;;;;;;19.91;nan;100969.94;5035600;28;20037;-75
2021/07/07 11:30:25;;;;;;;4.40;1.55;;;;;;;19.89;nan;100973.59;5024570;28;20124;-75
2021/07/07 11:32:54;;;;;;;3.97;1.38;;;;;;;19.96;nan;100976.91;5019957;28;20113;-74
2021/07/07 11:35:28;;;;;;;5.38;1.40;;;;;;;20.05;nan;100966.72;5020320;28;20132;-75
2021/07/07 11:37:55;;;;;;;2.50;1.15;;;;;;;20.06;nan;100979.16;5028912;28;20065;-75
2021/07/07 11:40:21;;;;;;;3.70;1.25;;;;;;;20.10;nan;100979.94;5026360;28;20392;-75